createdAt,value
2023-02-15T00:02:17.009Z,2.49
2023-02-15T00:05:19.326Z,2.37
2023-02-15T00:08:21.301Z,2.21
2023-02-15T00:11:41.968Z,2.36
2023-02-15T00:14:48.717Z,2.32
2023-02-15T00:17:50.773Z,2.27
2023-02-15T00:20:53.132Z,2.34
2023-02-15T00:23:55.074Z,2.14
2023-02-15T00:26:57.148Z,2.30
2023-02-15T00:29:59.178Z,2.21
2023-02-15T00:33:01.100Z,2.31
2023-02-15T00:36:04.521Z,2.28
2023-02-15T00:39:08.927Z,2.34
2023-02-15T00:42:11.186Z,2.32
2023-02-15T00:45:13.129Z,2.25
2023-02-15T00:48:14.988Z,2.19
2023-02-15T00:51:18.171Z,2.09
2023-02-15T00:54:20.076Z,1.93
2023-02-15T00:57:22.150Z,2.02
2023-02-15T01:00:24.418Z,1.98
2023-02-15T01:03:26.543Z,1.91
2023-02-15T01:06:28.590Z,1.82
2023-02-15T01:09:31.700Z,1.81
2023-02-15T01:12:34.119Z,1.84
2023-02-15T01:15:36.880Z,1.81
2023-02-15T01:18:38.950Z,1.85
2023-02-15T01:21:42.256Z,1.94
2023-02-15T01:24:44.272Z,1.90
2023-02-15T01:27:47.044Z,1.84
2023-02-15T01:30:51.677Z,1.82
2023-02-15T01:33:56.364Z,1.84
2023-02-15T01:36:58.361Z,1.85
2023-02-15T01:40:03.640Z,1.90
2023-02-15T01:43:13.067Z,1.97
2023-02-15T01:46:18.866Z,2.01
2023-02-15T01:49:27.256Z,1.94
2023-02-15T01:52:30.817Z,1.87
2023-02-15T01:55:41.128Z,1.77
2023-02-15T01:58:44.647Z,1.84
2023-02-15T02:01:47.279Z,1.72
2023-02-15T02:04:51.570Z,1.72
2023-02-15T02:07:57.103Z,1.73
2023-02-15T02:10:59.047Z,1.65
2023-02-15T02:14:01.726Z,1.69
2023-02-15T02:17:17.982Z,1.71
2023-02-15T02:20:40.721Z,1.72
2023-02-15T02:24:39.989Z,1.63
2023-02-15T02:28:05.964Z,1.61
2023-02-15T02:31:29.472Z,1.63
2023-02-15T02:34:54.490Z,1.63
2023-02-15T02:38:24.461Z,1.28
2023-02-15T02:41:45.063Z,1.50
2023-02-15T02:45:04.616Z,1.26
2023-02-15T02:48:15.044Z,1.35
2023-02-15T02:51:22.522Z,1.41
2023-02-15T02:54:26.716Z,1.52
2023-02-15T02:57:30.827Z,1.44
2023-02-15T03:00:45.184Z,1.58
2023-02-15T03:04:00.266Z,1.50
2023-02-15T03:07:06.580Z,1.63
2023-02-15T03:10:09.792Z,1.49
2023-02-15T03:13:12.027Z,1.56
2023-02-15T03:16:28.759Z,1.42
2023-02-15T03:19:37.775Z,1.48
2023-02-15T03:23:15.208Z,1.49
2023-02-15T03:26:18.933Z,1.51
2023-02-15T03:29:27.013Z,1.42
2023-02-15T03:32:33.612Z,1.42
2023-02-15T03:35:46.679Z,1.49
2023-02-15T03:39:01.029Z,1.26
2023-02-15T03:42:09.733Z,1.34
2023-02-15T03:45:20.065Z,1.26
2023-02-15T03:48:47.408Z,1.21
2023-02-15T03:51:52.768Z,1.33
2023-02-15T03:54:55.778Z,1.34
2023-02-15T03:58:16.181Z,1.42
2023-02-15T04:01:45.884Z,1.46
2023-02-15T04:04:49.299Z,1.32
2023-02-15T04:07:51.470Z,1.35
2023-02-15T04:10:53.451Z,1.17
2023-02-15T04:13:57.765Z,1.18
2023-02-15T04:16:59.982Z,0.99
2023-02-15T04:20:20.422Z,1.06
2023-02-15T04:23:41.304Z,1.17
2023-02-15T04:26:45.964Z,1.09
2023-02-15T04:29:51.006Z,1.02
2023-02-15T04:33:13.506Z,0.83
2023-02-15T04:36:39.707Z,0.91
2023-02-15T04:39:56.939Z,1.26
2023-02-15T04:43:13.112Z,1.24
2023-02-15T04:46:33.839Z,1.24
2023-02-15T04:50:03.267Z,1.35
2023-02-15T04:53:17.178Z,1.02
2023-02-15T04:56:24.394Z,0.87
2023-02-15T04:59:26.705Z,1.14
2023-02-15T05:02:28.860Z,1.06
2023-02-15T05:05:31.133Z,0.86
2023-02-15T05:08:33.243Z,0.98
2023-02-15T05:11:37.270Z,0.93
2023-02-15T05:14:39.619Z,0.79
2023-02-15T05:17:41.733Z,0.68
2023-02-15T05:20:44.661Z,0.69
2023-02-15T05:23:47.228Z,0.75
2023-02-15T05:27:24.075Z,0.55
2023-02-15T05:30:26.692Z,0.79
2023-02-15T05:33:28.983Z,0.88
2023-02-15T05:36:30.932Z,0.81
2023-02-15T05:39:32.986Z,0.84
2023-02-15T05:42:35.435Z,0.76
2023-02-15T05:45:37.549Z,0.80
2023-02-15T05:48:40.000Z,0.61
2023-02-15T05:51:42.172Z,0.71
2023-02-15T05:54:44.263Z,0.75
2023-02-15T05:57:46.317Z,0.66
2023-02-15T06:00:49.958Z,0.71
2023-02-15T06:03:52.079Z,0.75
2023-02-15T06:06:54.166Z,0.66
2023-02-15T06:09:56.730Z,0.55
2023-02-15T06:12:58.720Z,0.67
2023-02-15T06:16:00.969Z,0.53
2023-02-15T06:19:06.705Z,0.60
2023-02-15T06:22:08.983Z,0.68
2023-02-15T06:25:12.722Z,0.74
2023-02-15T06:28:20.625Z,0.91
2023-02-15T06:31:24.946Z,0.96
2023-02-15T06:34:26.997Z,0.94
2023-02-15T06:37:29.476Z,1.15
2023-02-15T06:40:35.098Z,1.10
2023-02-15T06:43:38.414Z,0.99
2023-02-15T06:46:42.951Z,0.96
2023-02-15T06:49:49.744Z,0.99
2023-02-15T06:53:17.779Z,1.30
2023-02-15T06:56:23.743Z,1.36
2023-02-15T06:59:32.156Z,1.45
2023-02-15T07:02:37.361Z,1.53
2023-02-15T07:05:53.012Z,1.48
2023-02-15T07:09:16.146Z,1.27
2023-02-15T07:16:14.118Z,1.49
2023-02-15T07:19:58.852Z,1.59
2023-02-15T07:23:15.492Z,1.57
2023-02-15T07:33:54.232Z,1.79
2023-02-15T07:37:10.917Z,2.11
2023-02-15T07:40:20.142Z,2.01
2023-02-15T07:43:32.220Z,1.98
2023-02-15T07:46:35.010Z,1.95
2023-02-15T07:49:44.728Z,2.07
2023-02-15T07:52:47.597Z,2.06
2023-02-15T07:55:56.439Z,2.03
2023-02-15T07:59:30.562Z,2.12
2023-02-15T08:03:21.380Z,2.37
2023-02-15T08:06:58.538Z,2.45
2023-02-15T08:23:27.355Z,2.58
2023-02-15T08:31:41.328Z,3.01
2023-02-15T08:34:57.134Z,2.76
2023-02-15T08:54:55.005Z,3.34
2023-02-15T08:58:23.987Z,3.58
2023-02-15T09:02:36.702Z,3.79
2023-02-15T09:07:05.352Z,3.95
2023-02-15T09:11:19.553Z,3.89
2023-02-15T09:19:10.581Z,4.30
2023-02-15T09:22:26.648Z,4.51
2023-02-15T09:29:03.205Z,4.62
2023-02-15T09:32:55.597Z,4.79
2023-02-15T09:36:20.377Z,4.98
2023-02-15T09:39:55.349Z,5.03
2023-02-15T09:51:14.678Z,5.14
2023-02-15T10:19:45.614Z,5.43
2023-02-15T10:23:20.431Z,5.32
2023-02-15T10:26:40.716Z,5.48
2023-02-15T10:44:32.178Z,5.60
2023-02-15T11:17:51.024Z,6.11
2023-02-15T11:31:24.486Z,6.59
2023-02-15T11:35:01.356Z,6.87
2023-02-15T11:38:34.207Z,7.18
2023-02-15T11:42:28.225Z,7.23
2023-02-15T11:45:45.344Z,7.42
2023-02-15T11:49:02.293Z,7.70
2023-02-15T11:52:31.247Z,8.01
2023-02-15T11:55:44.472Z,8.00
2023-02-15T11:59:24.693Z,7.98
2023-02-15T12:02:45.224Z,8.02
2023-02-15T12:06:55.075Z,8.25
2023-02-15T12:10:41.366Z,8.51
2023-02-15T12:14:38.733Z,8.21
2023-02-15T12:22:42.687Z,8.36
2023-02-15T12:30:21.952Z,9.07
2023-02-15T12:37:36.906Z,9.09
2023-02-15T12:41:00.454Z,8.99
2023-02-15T12:44:27.780Z,8.96
2023-02-15T12:47:43.999Z,9.21
2023-02-15T12:51:10.177Z,9.75
2023-02-15T12:54:36.319Z,10.27
2023-02-15T12:57:57.211Z,9.68
2023-02-15T13:02:17.436Z,9.22
2023-02-15T13:09:16.427Z,9.30
2023-02-15T13:12:28.310Z,9.65
2023-02-15T13:15:45.493Z,9.58
2023-02-15T13:19:17.480Z,9.19
2023-02-15T13:23:08.092Z,9.34
2023-02-15T13:26:35.872Z,9.17
2023-02-15T13:29:42.693Z,9.19
2023-02-15T13:32:50.286Z,9.06
2023-02-15T13:45:14.329Z,8.81
2023-02-15T13:48:21.947Z,8.74
2023-02-15T13:51:46.515Z,8.68
2023-02-15T13:55:26.665Z,8.66
2023-02-15T13:59:37.002Z,8.57
2023-02-15T14:03:18.498Z,8.32
2023-02-15T14:11:30.420Z,8.20
2023-02-15T14:15:05.026Z,8.33
2023-02-15T14:18:40.105Z,8.12
2023-02-15T14:27:03.477Z,8.02
2023-02-15T14:30:41.855Z,8.12
2023-02-15T14:35:03.240Z,8.10
2023-02-15T14:56:22.817Z,7.55
2023-02-15T15:00:00.466Z,7.76
2023-02-15T15:04:02.482Z,7.79
2023-02-15T15:07:48.975Z,7.61
2023-02-15T15:11:43.415Z,7.44
2023-02-15T15:20:14.994Z,7.44
2023-02-15T15:24:39.121Z,7.49
2023-02-15T15:32:29.075Z,7.07
2023-02-15T15:35:56.004Z,7.28
2023-02-15T15:39:24.301Z,7.07
2023-02-15T15:42:32.705Z,7.09
2023-02-15T15:46:18.860Z,7.01
2023-02-15T15:49:33.838Z,6.94
2023-02-15T15:52:40.947Z,7.00
2023-02-15T15:55:49.414Z,6.93
2023-02-15T15:58:57.551Z,6.93
2023-02-15T16:02:12.345Z,6.63
2023-02-15T16:05:15.891Z,6.60
2023-02-15T16:08:28.094Z,6.52
2023-02-15T16:11:33.442Z,6.34
2023-02-15T16:14:41.409Z,6.37
2023-02-15T16:17:48.701Z,6.32
2023-02-15T16:21:02.541Z,6.39
2023-02-15T16:24:27.441Z,6.56
2023-02-15T16:27:43.280Z,6.38
2023-02-15T16:30:46.087Z,6.36
2023-02-15T16:33:53.355Z,6.30
2023-02-15T16:37:15.524Z,6.12
2023-02-15T16:40:37.121Z,6.08
2023-02-15T16:43:44.636Z,5.98
2023-02-15T16:46:52.904Z,5.95
2023-02-15T16:49:59.282Z,5.92
2023-02-15T16:53:03.567Z,5.88
2023-02-15T16:56:07.388Z,5.87
2023-02-15T16:59:23.986Z,5.79
2023-02-15T17:02:54.534Z,5.84
2023-02-15T17:06:04.746Z,5.76
2023-02-15T17:09:20.747Z,5.53
2023-02-15T17:12:49.761Z,5.58
2023-02-15T17:20:35.951Z,5.37
2023-02-15T17:28:00.958Z,5.24
2023-02-15T17:31:09.564Z,5.37
2023-02-15T17:34:59.719Z,5.38
2023-02-15T17:38:32.572Z,5.31
2023-02-15T17:41:38.236Z,5.41
2023-02-15T17:44:40.673Z,5.27
2023-02-15T17:47:44.824Z,5.32
2023-02-15T17:50:51.011Z,5.21
2023-02-15T17:54:24.617Z,5.17
2023-02-15T17:57:29.574Z,5.06
2023-02-15T18:00:53.332Z,5.02
2023-02-15T18:04:15.308Z,5.09
2023-02-15T18:07:38.331Z,5.04
2023-02-15T18:10:59.226Z,5.00
2023-02-15T18:14:03.621Z,5.04
2023-02-15T18:17:06.078Z,4.99
2023-02-15T18:20:18.620Z,5.05
2023-02-15T18:23:22.012Z,4.85
2023-02-15T18:26:26.152Z,4.90
2023-02-15T18:29:28.603Z,4.70
2023-02-15T18:32:36.549Z,4.88
2023-02-15T18:35:38.746Z,4.73
2023-02-15T18:38:41.180Z,4.62
2023-02-15T18:41:43.463Z,4.42
2023-02-15T18:44:46.687Z,4.50
2023-02-15T18:47:49.305Z,4.47
2023-02-15T18:50:52.472Z,4.51
2023-02-15T18:53:55.057Z,4.42
2023-02-15T18:57:01.821Z,4.33
2023-02-15T19:00:05.804Z,4.31
2023-02-15T19:03:13.563Z,4.31
2023-02-15T19:06:18.914Z,4.41
2023-02-15T19:09:27.918Z,4.27
2023-02-15T19:12:30.885Z,4.34
2023-02-15T19:15:33.454Z,4.22
2023-02-15T19:18:38.832Z,4.19
2023-02-15T19:21:42.762Z,4.18
2023-02-15T19:24:47.119Z,4.16
2023-02-15T19:27:53.533Z,4.04
2023-02-15T19:30:56.007Z,3.96
2023-02-15T19:33:58.344Z,3.98
2023-02-15T19:37:01.084Z,3.83
2023-02-15T19:40:06.369Z,3.95
2023-02-15T19:43:24.500Z,3.99
2023-02-15T19:46:29.968Z,3.89
2023-02-15T19:49:33.544Z,3.77
2023-02-15T19:52:36.345Z,3.77
2023-02-15T19:55:38.800Z,3.81
2023-02-15T19:58:41.567Z,3.97
2023-02-15T20:01:44.429Z,3.92
2023-02-15T20:04:47.364Z,3.67
2023-02-15T20:07:52.328Z,3.59
2023-02-15T20:10:54.923Z,3.47
2023-02-15T20:13:58.326Z,3.52
2023-02-15T20:17:00.866Z,3.38
2023-02-15T20:20:03.831Z,3.29
2023-02-15T20:23:07.279Z,3.43
2023-02-15T20:26:18.290Z,3.43
2023-02-15T20:29:20.856Z,3.57
2023-02-15T20:32:24.342Z,3.47
2023-02-15T20:35:28.921Z,3.40
2023-02-15T20:38:32.343Z,3.38
2023-02-15T20:41:37.568Z,3.33
2023-02-15T20:44:41.186Z,3.15
2023-02-15T20:47:48.458Z,2.99
2023-02-15T20:50:53.716Z,3.07
2023-02-15T20:53:56.546Z,3.11
2023-02-15T20:56:59.324Z,2.99
2023-02-15T21:00:01.774Z,3.05
2023-02-15T21:03:13.596Z,3.00
2023-02-15T21:06:17.763Z,2.97
2023-02-15T21:09:20.423Z,3.04
2023-02-15T21:12:23.702Z,3.06
2023-02-15T21:15:41.956Z,3.00
2023-02-15T21:18:44.281Z,2.92
2023-02-15T21:21:48.317Z,2.86
2023-02-15T21:24:54.122Z,2.61
2023-02-15T21:27:57.843Z,2.47
2023-02-15T21:31:03.286Z,2.55
2023-02-15T21:34:07.944Z,2.39
2023-02-15T21:37:33.264Z,2.60
2023-02-15T21:40:37.467Z,2.64
2023-02-15T21:43:58.968Z,2.71
2023-02-15T21:47:21.127Z,2.53
2023-02-15T21:50:50.754Z,2.50
2023-02-15T21:53:52.856Z,2.40
2023-02-15T21:56:58.176Z,2.53
2023-02-15T22:00:01.827Z,2.64
2023-02-15T22:03:05.605Z,2.58
2023-02-15T22:06:12.741Z,2.51
2023-02-15T22:09:29.732Z,2.44
2023-02-15T22:12:32.323Z,2.60
2023-02-15T22:15:37.826Z,2.70
2023-02-15T22:18:39.959Z,2.30
2023-02-15T22:21:42.166Z,2.03
2023-02-15T22:24:45.011Z,2.07
2023-02-15T22:27:48.769Z,2.33
2023-02-15T22:30:50.877Z,2.25
2023-02-15T22:33:54.947Z,2.20
2023-02-15T22:36:58.526Z,2.33
2023-02-15T22:40:00.629Z,2.35
2023-02-15T22:43:06.661Z,2.26
2023-02-15T22:46:16.408Z,2.30
2023-02-15T22:49:18.877Z,2.14
2023-02-15T22:52:21.761Z,2.12
2023-02-15T22:55:25.905Z,2.13
2023-02-15T22:58:28.873Z,2.12
2023-02-15T23:01:33.743Z,1.94
2023-02-15T23:04:35.620Z,1.89
2023-02-15T23:07:37.473Z,2.02
2023-02-15T23:10:41.666Z,2.10
2023-02-15T23:13:43.905Z,2.08
2023-02-15T23:16:45.998Z,2.05
2023-02-15T23:19:48.236Z,2.23
2023-02-15T23:22:50.189Z,2.17
2023-02-15T23:25:54.899Z,2.19
2023-02-15T23:28:59.274Z,2.09
2023-02-15T23:32:02.613Z,1.99
2023-02-15T23:35:14.558Z,1.94
2023-02-15T23:38:21.684Z,1.94
2023-02-15T23:41:29.462Z,1.73
2023-02-15T23:44:31.664Z,1.78
2023-02-15T23:47:54.056Z,1.85
2023-02-15T23:50:57.059Z,1.89
2023-02-15T23:53:59.524Z,1.95
2023-02-15T23:57:02.650Z,2.14
